Terminal Aerodrome Forecast
Issued by NWS

Home | Current Version | Previous Version | Graphics & Text | Print | Product List | Glossary On
Versions: 1 2 3 4 5 6 7 8 9 10 11 12 13 14 15 16 17 18 19 20 21 22 23 24 25 26 27 28 29
264
FTUS43 KLOT 232330
TAFDPA
TAF
KDPA 232330Z 2400/2424 35012G18KT 5SM -TSRA SCT015 OVC040CB
     FM240115 27015G25KT 3SM TSRA SCT015 OVC040CB
     FM240200 VRB06KT 6SM -SHRA VCTS BKN040CB
     FM240400 18006KT P6SM SCT030 BKN250
     FM241000 18006KT P6SM VCTS BKN025CB
     FM241300 21012G19KT P6SM SCT040
     FM242200 24012G19KT P6SM VCTS BKN040CB=

USA.gov is the U.S. government's official web portal to all federal, state and local government web resources and services.